sensor_id;sensor_type;location;lat;lon;timestamp;temperature;humidity
18305;DHT22;9278;52.156;21.048;2022-10-10T00:01:33;4.70;1.00
18305;DHT22;9278;52.156;21.048;2022-10-10T00:04:02;4.60;1.00
18305;DHT22;9278;52.156;21.048;2022-10-10T00:06:31;4.70;1.00
18305;DHT22;9278;52.156;21.048;2022-10-10T00:08:59;4.70;1.00
18305;DHT22;9278;52.156;21.048;2022-10-10T00:11:28;4.70;1.00
18305;DHT22;9278;52.156;21.048;2022-10-10T00:13:57;4.60;1.00
18305;DHT22;9278;52.156;21.048;2022-10-10T00:16:26;4.60;1.00
18305;DHT22;9278;52.156;21.048;2022-10-10T00:18:54;4.50;1.00
18305;DHT22;9278;52.156;21.048;2022-10-10T00:21:22;4.50;1.00
18305;DHT22;9278;52.156;21.048;2022-10-10T00:23:51;4.50;1.00
18305;DHT22;9278;52.156;21.048;2022-10-10T00:26:19;4.50;1.00
18305;DHT22;9278;52.156;21.048;2022-10-10T00:28:47;4.40;1.00
18305;DHT22;9278;52.156;21.048;2022-10-10T00:31:17;4.30;1.00
18305;DHT22;9278;52.156;21.048;2022-10-10T00:33:45;4.30;1.00
18305;DHT22;9278;52.156;21.048;2022-10-10T00:36:14;4.30;1.00
18305;DHT22;9278;52.156;21.048;2022-10-10T00:38:42;4.30;1.00
18305;DHT22;9278;52.156;21.048;2022-10-10T00:41:14;4.20;1.00
18305;DHT22;9278;52.156;21.048;2022-10-10T00:43:42;4.20;1.00
18305;DHT22;9278;52.156;21.048;2022-10-10T00:46:10;4.20;1.00
18305;DHT22;9278;52.156;21.048;2022-10-10T00:48:42;4.20;1.00
18305;DHT22;9278;52.156;21.048;2022-10-10T00:51:13;4.20;1.00
18305;DHT22;9278;52.156;21.048;2022-10-10T00:53:46;4.20;1.00
18305;DHT22;9278;52.156;21.048;2022-10-10T00:56:18;4.10;1.00
18305;DHT22;9278;52.156;21.048;2022-10-10T00:58:50;4.10;1.00
18305;DHT22;9278;52.156;21.048;2022-10-10T01:01:19;4.00;1.00
18305;DHT22;9278;52.156;21.048;2022-10-10T01:03:49;4.00;1.00
18305;DHT22;9278;52.156;21.048;2022-10-10T01:06:17;3.90;1.00
18305;DHT22;9278;52.156;21.048;2022-10-10T01:08:45;3.90;1.00
18305;DHT22;9278;52.156;21.048;2022-10-10T01:11:26;3.90;1.00
18305;DHT22;9278;52.156;21.048;2022-10-10T01:14:00;3.90;1.00
18305;DHT22;9278;52.156;21.048;2022-10-10T01:16:36;3.80;1.00
18305;DHT22;9278;52.156;21.048;2022-10-10T01:19:25;3.80;1.00
18305;DHT22;9278;52.156;21.048;2022-10-10T01:22:11;3.70;1.00
18305;DHT22;9278;52.156;21.048;2022-10-10T01:24:54;3.70;1.00
18305;DHT22;9278;52.156;21.048;2022-10-10T01:27:25;3.70;1.00
18305;DHT22;9278;52.156;21.048;2022-10-10T01:30:04;3.60;1.00
18305;DHT22;9278;52.156;21.048;2022-10-10T01:32:38;3.50;1.00
18305;DHT22;9278;52.156;21.048;2022-10-10T01:35:19;3.50;1.00
18305;DHT22;9278;52.156;21.048;2022-10-10T01:37:56;3.40;1.00
18305;DHT22;9278;52.156;21.048;2022-10-10T01:40:32;3.50;1.00
18305;DHT22;9278;52.156;21.048;2022-10-10T01:43:04;3.40;1.00
18305;DHT22;9278;52.156;21.048;2022-10-10T01:45:35;3.30;1.00
18305;DHT22;9278;52.156;21.048;2022-10-10T01:48:05;3.40;1.00
18305;DHT22;9278;52.156;21.048;2022-10-10T01:50:40;3.40;1.00
18305;DHT22;9278;52.156;21.048;2022-10-10T01:53:16;3.40;1.00
18305;DHT22;9278;52.156;21.048;2022-10-10T01:55:55;3.30;1.00
18305;DHT22;9278;52.156;21.048;2022-10-10T01:58:50;3.20;1.00
18305;DHT22;9278;52.156;21.048;2022-10-10T02:01:25;3.10;1.00
18305;DHT22;9278;52.156;21.048;2022-10-10T02:04:03;3.10;1.00
18305;DHT22;9278;52.156;21.048;2022-10-10T02:06:38;3.00;1.00
18305;DHT22;9278;52.156;21.048;2022-10-10T02:09:10;3.00;1.00
18305;DHT22;9278;52.156;21.048;2022-10-10T02:11:40;2.90;1.00
18305;DHT22;9278;52.156;21.048;2022-10-10T02:14:13;3.00;1.00
18305;DHT22;9278;52.156;21.048;2022-10-10T02:16:46;2.90;1.00
18305;DHT22;9278;52.156;21.048;2022-10-10T02:19:18;3.10;1.00
18305;DHT22;9278;52.156;21.048;2022-10-10T02:21:49;3.00;1.00
18305;DHT22;9278;52.156;21.048;2022-10-10T02:24:19;3.00;1.00
18305;DHT22;9278;52.156;21.048;2022-10-10T02:26:53;2.90;1.00
18305;DHT22;9278;52.156;21.048;2022-10-10T02:29:26;3.00;1.00
18305;DHT22;9278;52.156;21.048;2022-10-10T02:32:02;2.90;1.00
18305;DHT22;9278;52.156;21.048;2022-10-10T02:34:34;2.80;1.00
18305;DHT22;9278;52.156;21.048;2022-10-10T02:37:06;2.70;1.00
18305;DHT22;9278;52.156;21.048;2022-10-10T02:39:40;2.60;1.00
18305;DHT22;9278;52.156;21.048;2022-10-10T02:42:14;2.60;1.00
18305;DHT22;9278;52.156;21.048;2022-10-10T02:44:44;2.50;1.00
18305;DHT22;9278;52.156;21.048;2022-10-10T02:47:14;2.50;1.00
18305;DHT22;9278;52.156;21.048;2022-10-10T02:49:43;2.50;1.00
18305;DHT22;9278;52.156;21.048;2022-10-10T02:52:12;2.50;1.00
18305;DHT22;9278;52.156;21.048;2022-10-10T02:54:41;2.50;1.00
18305;DHT22;9278;52.156;21.048;2022-10-10T02:57:10;2.50;1.00
18305;DHT22;9278;52.156;21.048;2022-10-10T02:59:38;2.50;1.00
18305;DHT22;9278;52.156;21.048;2022-10-10T03:02:06;2.50;1.00
18305;DHT22;9278;52.156;21.048;2022-10-10T03:04:36;2.40;1.00
18305;DHT22;9278;52.156;21.048;2022-10-10T03:07:05;2.40;1.00
18305;DHT22;9278;52.156;21.048;2022-10-10T03:09:33;2.40;1.00
18305;DHT22;9278;52.156;21.048;2022-10-10T03:12:01;2.40;1.00
18305;DHT22;9278;52.156;21.048;2022-10-10T03:14:30;2.20;1.00
18305;DHT22;9278;52.156;21.048;2022-10-10T03:16:58;2.20;1.00
18305;DHT22;9278;52.156;21.048;2022-10-10T03:19:26;2.30;1.00
18305;DHT22;9278;52.156;21.048;2022-10-10T03:21:56;2.20;1.00
18305;DHT22;9278;52.156;21.048;2022-10-10T03:24:24;2.30;1.00
18305;DHT22;9278;52.156;21.048;2022-10-10T03:26:53;2.30;1.00
18305;DHT22;9278;52.156;21.048;2022-10-10T03:29:24;2.30;1.00
18305;DHT22;9278;52.156;21.048;2022-10-10T03:31:52;2.30;1.00
18305;DHT22;9278;52.156;21.048;2022-10-10T03:34:20;2.30;1.00
18305;DHT22;9278;52.156;21.048;2022-10-10T03:36:49;2.30;1.00
18305;DHT22;9278;52.156;21.048;2022-10-10T03:39:18;2.30;1.00
18305;DHT22;9278;52.156;21.048;2022-10-10T03:41:46;2.30;1.00
18305;DHT22;9278;52.156;21.048;2022-10-10T03:44:16;2.20;1.00
18305;DHT22;9278;52.156;21.048;2022-10-10T03:46:44;2.10;1.00
18305;DHT22;9278;52.156;21.048;2022-10-10T03:49:13;2.10;1.00
18305;DHT22;9278;52.156;21.048;2022-10-10T03:51:41;2.10;1.00
18305;DHT22;9278;52.156;21.048;2022-10-10T03:54:09;2.00;1.00
18305;DHT22;9278;52.156;21.048;2022-10-10T03:56:39;2.20;1.00
18305;DHT22;9278;52.156;21.048;2022-10-10T03:59:07;2.00;1.00
18305;DHT22;9278;52.156;21.048;2022-10-10T04:01:36;2.00;1.00
18305;DHT22;9278;52.156;21.048;2022-10-10T04:04:04;2.10;1.00
18305;DHT22;9278;52.156;21.048;2022-10-10T04:06:35;2.00;1.00
18305;DHT22;9278;52.156;21.048;2022-10-10T04:09:03;2.10;1.00
18305;DHT22;9278;52.156;21.048;2022-10-10T04:11:32;2.10;1.00
18305;DHT22;9278;52.156;21.048;2022-10-10T04:14:03;2.10;1.00
18305;DHT22;9278;52.156;21.048;2022-10-10T04:16:31;2.20;1.00
18305;DHT22;9278;52.156;21.048;2022-10-10T04:19:00;2.20;1.00
18305;DHT22;9278;52.156;21.048;2022-10-10T04:21:28;2.10;1.00
18305;DHT22;9278;52.156;21.048;2022-10-10T04:23:59;2.10;1.00
18305;DHT22;9278;52.156;21.048;2022-10-10T04:26:27;2.10;1.00
18305;DHT22;9278;52.156;21.048;2022-10-10T04:28:55;2.10;1.00
18305;DHT22;9278;52.156;21.048;2022-10-10T04:31:25;2.10;1.00
18305;DHT22;9278;52.156;21.048;2022-10-10T04:33:53;2.10;1.00
18305;DHT22;9278;52.156;21.048;2022-10-10T04:36:21;2.20;1.00
18305;DHT22;9278;52.156;21.048;2022-10-10T04:38:50;2.20;1.00
18305;DHT22;9278;52.156;21.048;2022-10-10T04:41:18;2.10;1.00
18305;DHT22;9278;52.156;21.048;2022-10-10T04:43:46;2.10;1.00
18305;DHT22;9278;52.156;21.048;2022-10-10T04:46:17;2.10;1.00
18305;DHT22;9278;52.156;21.048;2022-10-10T04:48:47;2.10;1.00
18305;DHT22;9278;52.156;21.048;2022-10-10T04:51:15;2.00;1.00
18305;DHT22;9278;52.156;21.048;2022-10-10T04:53:44;2.00;1.00
18305;DHT22;9278;52.156;21.048;2022-10-10T04:56:16;2.10;1.00
18305;DHT22;9278;52.156;21.048;2022-10-10T04:58:44;2.10;1.00
18305;DHT22;9278;52.156;21.048;2022-10-10T05:01:13;2.20;1.00
18305;DHT22;9278;52.156;21.048;2022-10-10T05:03:44;2.20;1.00
18305;DHT22;9278;52.156;21.048;2022-10-10T05:06:14;2.30;1.00
18305;DHT22;9278;52.156;21.048;2022-10-10T05:08:42;2.30;1.00
18305;DHT22;9278;52.156;21.048;2022-10-10T05:11:12;2.50;1.00
18305;DHT22;9278;52.156;21.048;2022-10-10T05:13:40;2.40;1.00
18305;DHT22;9278;52.156;21.048;2022-10-10T05:16:09;2.50;1.00
18305;DHT22;9278;52.156;21.048;2022-10-10T05:18:37;2.40;1.00
18305;DHT22;9278;52.156;21.048;2022-10-10T05:21:05;2.50;1.00
18305;DHT22;9278;52.156;21.048;2022-10-10T05:23:35;2.40;1.00
18305;DHT22;9278;52.156;21.048;2022-10-10T05:26:04;2.60;1.00
18305;DHT22;9278;52.156;21.048;2022-10-10T05:28:32;2.60;1.00
18305;DHT22;9278;52.156;21.048;2022-10-10T05:31:03;2.60;1.00
18305;DHT22;9278;52.156;21.048;2022-10-10T05:33:32;2.80;1.00
18305;DHT22;9278;52.156;21.048;2022-10-10T05:36:01;2.80;1.00
18305;DHT22;9278;52.156;21.048;2022-10-10T05:38:32;2.80;1.00
18305;DHT22;9278;52.156;21.048;2022-10-10T05:41:02;2.90;1.00
18305;DHT22;9278;52.156;21.048;2022-10-10T05:43:30;3.20;1.00
18305;DHT22;9278;52.156;21.048;2022-10-10T05:45:58;3.30;1.00
18305;DHT22;9278;52.156;21.048;2022-10-10T05:48:27;3.40;1.00
18305;DHT22;9278;52.156;21.048;2022-10-10T05:50:56;3.50;1.00
18305;DHT22;9278;52.156;21.048;2022-10-10T05:53:26;3.70;1.00
18305;DHT22;9278;52.156;21.048;2022-10-10T05:55:54;3.90;1.00
18305;DHT22;9278;52.156;21.048;2022-10-10T05:58:25;4.00;99.90
18305;DHT22;9278;52.156;21.048;2022-10-10T06:01:13;4.30;99.90
18305;DHT22;9278;52.156;21.048;2022-10-10T06:03:41;4.50;99.90
18305;DHT22;9278;52.156;21.048;2022-10-10T06:06:10;4.70;99.90
18305;DHT22;9278;52.156;21.048;2022-10-10T06:08:38;5.00;99.90
18305;DHT22;9278;52.156;21.048;2022-10-10T06:11:06;5.20;99.90
18305;DHT22;9278;52.156;21.048;2022-10-10T06:13:36;5.30;99.90
18305;DHT22;9278;52.156;21.048;2022-10-10T06:16:05;5.50;99.90
18305;DHT22;9278;52.156;21.048;2022-10-10T06:18:36;5.60;99.90
18305;DHT22;9278;52.156;21.048;2022-10-10T06:21:06;5.80;99.90
18305;DHT22;9278;52.156;21.048;2022-10-10T06:23:34;5.70;99.90
18305;DHT22;9278;52.156;21.048;2022-10-10T06:26:03;6.00;99.90
18305;DHT22;9278;52.156;21.048;2022-10-10T06:28:36;6.00;99.90
18305;DHT22;9278;52.156;21.048;2022-10-10T06:31:06;5.90;99.90
18305;DHT22;9278;52.156;21.048;2022-10-10T06:33:35;5.90;99.90
18305;DHT22;9278;52.156;21.048;2022-10-10T06:36:06;6.00;99.90
18305;DHT22;9278;52.156;21.048;2022-10-10T06:38:36;6.10;99.90
18305;DHT22;9278;52.156;21.048;2022-10-10T06:41:05;6.00;99.90
18305;DHT22;9278;52.156;21.048;2022-10-10T06:43:36;5.80;99.90
18305;DHT22;9278;52.156;21.048;2022-10-10T06:46:04;5.80;99.90
18305;DHT22;9278;52.156;21.048;2022-10-10T06:48:33;5.70;99.90
18305;DHT22;9278;52.156;21.048;2022-10-10T06:51:03;5.70;99.90
18305;DHT22;9278;52.156;21.048;2022-10-10T06:53:32;5.70;99.90
18305;DHT22;9278;52.156;21.048;2022-10-10T06:56:01;5.70;99.90
18305;DHT22;9278;52.156;21.048;2022-10-10T06:58:30;5.80;99.90
18305;DHT22;9278;52.156;21.048;2022-10-10T07:01:01;5.80;99.90
18305;DHT22;9278;52.156;21.048;2022-10-10T07:03:30;5.80;99.90
18305;DHT22;9278;52.156;21.048;2022-10-10T07:06:02;5.90;99.90
18305;DHT22;9278;52.156;21.048;2022-10-10T07:08:32;5.90;99.90
18305;DHT22;9278;52.156;21.048;2022-10-10T07:11:01;6.00;99.90
18305;DHT22;9278;52.156;21.048;2022-10-10T07:13:29;6.10;99.90
18305;DHT22;9278;52.156;21.048;2022-10-10T07:15:58;6.20;99.90
18305;DHT22;9278;52.156;21.048;2022-10-10T07:18:27;6.20;99.90
18305;DHT22;9278;52.156;21.048;2022-10-10T07:20:56;6.30;99.90
18305;DHT22;9278;52.156;21.048;2022-10-10T07:23:25;6.70;99.90
18305;DHT22;9278;52.156;21.048;2022-10-10T07:25:58;6.80;99.90
18305;DHT22;9278;52.156;21.048;2022-10-10T07:28:27;7.30;99.90
18305;DHT22;9278;52.156;21.048;2022-10-10T07:30:59;7.00;99.90
18305;DHT22;9278;52.156;21.048;2022-10-10T07:33:32;7.20;99.90
18305;DHT22;9278;52.156;21.048;2022-10-10T07:36:00;7.10;99.90
18305;DHT22;9278;52.156;21.048;2022-10-10T07:38:29;7.50;99.90
18305;DHT22;9278;52.156;21.048;2022-10-10T07:41:04;7.30;99.90
18305;DHT22;9278;52.156;21.048;2022-10-10T07:43:32;7.40;99.90
18305;DHT22;9278;52.156;21.048;2022-10-10T07:46:01;7.40;99.90
18305;DHT22;9278;52.156;21.048;2022-10-10T07:48:34;7.50;99.90
18305;DHT22;9278;52.156;21.048;2022-10-10T07:51:05;7.60;99.90
18305;DHT22;9278;52.156;21.048;2022-10-10T07:53:33;7.90;99.90
18305;DHT22;9278;52.156;21.048;2022-10-10T07:56:03;7.90;99.90
18305;DHT22;9278;52.156;21.048;2022-10-10T07:58:35;8.00;99.90
18305;DHT22;9278;52.156;21.048;2022-10-10T08:01:05;8.10;99.90
18305;DHT22;9278;52.156;21.048;2022-10-10T08:03:35;8.10;99.90
18305;DHT22;9278;52.156;21.048;2022-10-10T08:06:05;8.20;99.90
18305;DHT22;9278;52.156;21.048;2022-10-10T08:08:34;8.50;99.90
18305;DHT22;9278;52.156;21.048;2022-10-10T08:11:16;8.60;99.90
18305;DHT22;9278;52.156;21.048;2022-10-10T08:13:44;8.60;99.90
18305;DHT22;9278;52.156;21.048;2022-10-10T08:16:12;8.70;99.90
18305;DHT22;9278;52.156;21.048;2022-10-10T08:18:43;9.00;99.90
18305;DHT22;9278;52.156;21.048;2022-10-10T08:21:15;8.90;99.90
18305;DHT22;9278;52.156;21.048;2022-10-10T08:23:43;9.10;99.90
18305;DHT22;9278;52.156;21.048;2022-10-10T08:26:24;9.20;99.90
18305;DHT22;9278;52.156;21.048;2022-10-10T08:28:55;9.40;99.90
18305;DHT22;9278;52.156;21.048;2022-10-10T08:31:23;9.70;99.90
18305;DHT22;9278;52.156;21.048;2022-10-10T08:33:56;10.30;99.90
18305;DHT22;9278;52.156;21.048;2022-10-10T08:36:24;9.90;99.90
18305;DHT22;9278;52.156;21.048;2022-10-10T08:38:54;9.80;99.90
18305;DHT22;9278;52.156;21.048;2022-10-10T08:41:39;10.00;99.90
18305;DHT22;9278;52.156;21.048;2022-10-10T08:44:13;9.90;99.90
18305;DHT22;9278;52.156;21.048;2022-10-10T08:46:46;9.90;99.90
18305;DHT22;9278;52.156;21.048;2022-10-10T08:49:22;10.30;99.90
18305;DHT22;9278;52.156;21.048;2022-10-10T08:52:00;10.20;99.90
18305;DHT22;9278;52.156;21.048;2022-10-10T08:54:31;10.20;99.90
18305;DHT22;9278;52.156;21.048;2022-10-10T08:57:04;10.30;99.90
18305;DHT22;9278;52.156;21.048;2022-10-10T08:59:35;10.30;99.90
18305;DHT22;9278;52.156;21.048;2022-10-10T09:02:26;10.50;99.90
18305;DHT22;9278;52.156;21.048;2022-10-10T09:05:19;10.70;99.90
18305;DHT22;9278;52.156;21.048;2022-10-10T09:07:59;10.80;99.90
18305;DHT22;9278;52.156;21.048;2022-10-10T09:10:35;10.90;99.90
18305;DHT22;9278;52.156;21.048;2022-10-10T09:13:15;10.80;99.90
18305;DHT22;9278;52.156;21.048;2022-10-10T09:15:51;10.80;99.90
18305;DHT22;9278;52.156;21.048;2022-10-10T09:18:36;11.10;99.90
18305;DHT22;9278;52.156;21.048;2022-10-10T09:21:11;11.20;99.90
18305;DHT22;9278;52.156;21.048;2022-10-10T09:23:47;11.50;99.90
18305;DHT22;9278;52.156;21.048;2022-10-10T09:26:19;11.80;99.90
18305;DHT22;9278;52.156;21.048;2022-10-10T09:28:52;11.60;99.90
18305;DHT22;9278;52.156;21.048;2022-10-10T09:31:27;11.50;99.90
18305;DHT22;9278;52.156;21.048;2022-10-10T09:34:02;11.50;99.90
18305;DHT22;9278;52.156;21.048;2022-10-10T09:36:35;11.50;99.90
18305;DHT22;9278;52.156;21.048;2022-10-10T09:39:12;11.60;99.90
18305;DHT22;9278;52.156;21.048;2022-10-10T09:41:46;11.60;99.90
18305;DHT22;9278;52.156;21.048;2022-10-10T09:44:19;11.70;99.90
18305;DHT22;9278;52.156;21.048;2022-10-10T09:46:48;11.70;99.90
18305;DHT22;9278;52.156;21.048;2022-10-10T09:49:17;11.70;99.90
18305;DHT22;9278;52.156;21.048;2022-10-10T09:51:48;12.00;99.90
18305;DHT22;9278;52.156;21.048;2022-10-10T09:54:18;12.10;99.90
18305;DHT22;9278;52.156;21.048;2022-10-10T09:56:49;12.10;99.90
18305;DHT22;9278;52.156;21.048;2022-10-10T09:59:38;12.20;99.90
18305;DHT22;9278;52.156;21.048;2022-10-10T10:02:12;12.20;99.90
18305;DHT22;9278;52.156;21.048;2022-10-10T10:04:42;12.40;99.90
18305;DHT22;9278;52.156;21.048;2022-10-10T10:07:26;12.40;99.90
18305;DHT22;9278;52.156;21.048;2022-10-10T10:09:57;12.50;99.90
18305;DHT22;9278;52.156;21.048;2022-10-10T10:12:28;12.70;99.90
18305;DHT22;9278;52.156;21.048;2022-10-10T10:14:59;12.90;99.90
18305;DHT22;9278;52.156;21.048;2022-10-10T10:17:29;12.90;99.90
18305;DHT22;9278;52.156;21.048;2022-10-10T10:19:57;12.90;99.90
18305;DHT22;9278;52.156;21.048;2022-10-10T10:22:37;13.00;99.90
18305;DHT22;9278;52.156;21.048;2022-10-10T10:25:29;12.90;99.90
18305;DHT22;9278;52.156;21.048;2022-10-10T10:28:13;13.00;99.90
18305;DHT22;9278;52.156;21.048;2022-10-10T10:30:43;13.00;99.90
18305;DHT22;9278;52.156;21.048;2022-10-10T10:33:19;13.00;99.90
18305;DHT22;9278;52.156;21.048;2022-10-10T10:35:53;13.10;99.90
18305;DHT22;9278;52.156;21.048;2022-10-10T10:38:36;13.20;99.90
18305;DHT22;9278;52.156;21.048;2022-10-10T10:41:12;13.20;99.90
18305;DHT22;9278;52.156;21.048;2022-10-10T10:43:56;13.30;99.90
18305;DHT22;9278;52.156;21.048;2022-10-10T10:46:38;13.40;99.90
18305;DHT22;9278;52.156;21.048;2022-10-10T10:49:14;13.50;99.90
18305;DHT22;9278;52.156;21.048;2022-10-10T10:52:05;13.60;99.90
18305;DHT22;9278;52.156;21.048;2022-10-10T10:54:46;13.60;99.90
18305;DHT22;9278;52.156;21.048;2022-10-10T10:57:23;13.60;99.90
18305;DHT22;9278;52.156;21.048;2022-10-10T11:00:13;13.60;99.90
18305;DHT22;9278;52.156;21.048;2022-10-10T11:03:13;13.70;99.90
18305;DHT22;9278;52.156;21.048;2022-10-10T11:06:13;13.80;99.90
18305;DHT22;9278;52.156;21.048;2022-10-10T11:08:52;13.90;99.90
18305;DHT22;9278;52.156;21.048;2022-10-10T11:11:41;14.00;99.90
18305;DHT22;9278;52.156;21.048;2022-10-10T11:14:22;14.00;99.90
18305;DHT22;9278;52.156;21.048;2022-10-10T11:16:54;14.00;99.90
18305;DHT22;9278;52.156;21.048;2022-10-10T11:19:28;14.00;99.90
18305;DHT22;9278;52.156;21.048;2022-10-10T11:22:03;14.10;99.90
18305;DHT22;9278;52.156;21.048;2022-10-10T11:24:42;14.20;99.90
18305;DHT22;9278;52.156;21.048;2022-10-10T11:27:17;14.30;99.90
18305;DHT22;9278;52.156;21.048;2022-10-10T11:29:55;14.30;99.90
18305;DHT22;9278;52.156;21.048;2022-10-10T11:32:29;14.20;99.90
18305;DHT22;9278;52.156;21.048;2022-10-10T11:35:16;14.20;99.90
18305;DHT22;9278;52.156;21.048;2022-10-10T11:37:50;14.20;99.90
18305;DHT22;9278;52.156;21.048;2022-10-10T11:40:31;14.30;99.90
18305;DHT22;9278;52.156;21.048;2022-10-10T11:43:05;14.30;99.90
18305;DHT22;9278;52.156;21.048;2022-10-10T11:45:42;14.40;99.90
18305;DHT22;9278;52.156;21.048;2022-10-10T11:48:17;14.40;99.90
18305;DHT22;9278;52.156;21.048;2022-10-10T11:50:52;14.40;99.90
18305;DHT22;9278;52.156;21.048;2022-10-10T11:53:25;14.50;99.90
18305;DHT22;9278;52.156;21.048;2022-10-10T11:56:03;14.40;99.90
18305;DHT22;9278;52.156;21.048;2022-10-10T11:58:40;14.60;99.90
18305;DHT22;9278;52.156;21.048;2022-10-10T12:01:15;14.60;99.90
18305;DHT22;9278;52.156;21.048;2022-10-10T12:03:45;14.60;99.90
18305;DHT22;9278;52.156;21.048;2022-10-10T12:06:19;14.60;99.90
18305;DHT22;9278;52.156;21.048;2022-10-10T12:08:55;14.70;99.90
18305;DHT22;9278;52.156;21.048;2022-10-10T12:11:28;14.70;99.90
18305;DHT22;9278;52.156;21.048;2022-10-10T12:14:00;14.70;99.90
18305;DHT22;9278;52.156;21.048;2022-10-10T12:16:32;14.70;99.90
18305;DHT22;9278;52.156;21.048;2022-10-10T12:19:04;14.70;99.90
18305;DHT22;9278;52.156;21.048;2022-10-10T12:21:50;14.60;99.90
18305;DHT22;9278;52.156;21.048;2022-10-10T12:24:20;14.70;99.90
18305;DHT22;9278;52.156;21.048;2022-10-10T12:27:09;14.70;99.90
18305;DHT22;9278;52.156;21.048;2022-10-10T12:29:45;14.70;99.90
18305;DHT22;9278;52.156;21.048;2022-10-10T12:32:25;14.80;99.90
18305;DHT22;9278;52.156;21.048;2022-10-10T12:34:59;14.80;99.90
18305;DHT22;9278;52.156;21.048;2022-10-10T12:37:29;14.70;99.90
18305;DHT22;9278;52.156;21.048;2022-10-10T12:40:18;14.80;99.90
18305;DHT22;9278;52.156;21.048;2022-10-10T12:43:21;14.80;99.90
18305;DHT22;9278;52.156;21.048;2022-10-10T12:46:07;14.90;99.90
18305;DHT22;9278;52.156;21.048;2022-10-10T12:48:36;15.00;99.90
18305;DHT22;9278;52.156;21.048;2022-10-10T12:51:04;15.00;99.90
18305;DHT22;9278;52.156;21.048;2022-10-10T12:53:33;15.20;99.90
18305;DHT22;9278;52.156;21.048;2022-10-10T12:56:02;15.20;99.90
18305;DHT22;9278;52.156;21.048;2022-10-10T12:58:32;15.20;99.90
18305;DHT22;9278;52.156;21.048;2022-10-10T13:01:06;15.10;99.90
18305;DHT22;9278;52.156;21.048;2022-10-10T13:03:37;15.10;99.90
18305;DHT22;9278;52.156;21.048;2022-10-10T13:06:10;15.10;99.90
18305;DHT22;9278;52.156;21.048;2022-10-10T13:08:42;15.10;99.90
18305;DHT22;9278;52.156;21.048;2022-10-10T13:11:14;15.20;99.90
18305;DHT22;9278;52.156;21.048;2022-10-10T13:13:48;15.20;99.90
18305;DHT22;9278;52.156;21.048;2022-10-10T13:16:19;15.30;99.90
18305;DHT22;9278;52.156;21.048;2022-10-10T13:18:49;15.20;99.90
18305;DHT22;9278;52.156;21.048;2022-10-10T13:21:21;15.10;99.90
18305;DHT22;9278;52.156;21.048;2022-10-10T13:23:53;15.10;99.90
18305;DHT22;9278;52.156;21.048;2022-10-10T13:26:44;15.20;99.90
18305;DHT22;9278;52.156;21.048;2022-10-10T13:29:22;15.30;99.90
18305;DHT22;9278;52.156;21.048;2022-10-10T13:31:54;15.50;99.90
18305;DHT22;9278;52.156;21.048;2022-10-10T13:34:27;15.30;99.90
18305;DHT22;9278;52.156;21.048;2022-10-10T13:37:00;15.40;99.90
18305;DHT22;9278;52.156;21.048;2022-10-10T13:39:31;15.40;99.90
18305;DHT22;9278;52.156;21.048;2022-10-10T13:42:02;15.60;99.90
18305;DHT22;9278;52.156;21.048;2022-10-10T13:44:45;15.50;99.90
18305;DHT22;9278;52.156;21.048;2022-10-10T13:50:24;15.50;99.90
18305;DHT22;9278;52.156;21.048;2022-10-10T13:53:21;15.80;99.90
18305;DHT22;9278;52.156;21.048;2022-10-10T13:55:57;16.20;99.90
18305;DHT22;9278;52.156;21.048;2022-10-10T13:58:28;16.20;99.90
18305;DHT22;9278;52.156;21.048;2022-10-10T14:00:59;15.80;99.90
18305;DHT22;9278;52.156;21.048;2022-10-10T14:03:29;15.70;99.90
18305;DHT22;9278;52.156;21.048;2022-10-10T14:06:00;15.60;99.90
18305;DHT22;9278;52.156;21.048;2022-10-10T14:08:31;15.40;99.90
18305;DHT22;9278;52.156;21.048;2022-10-10T14:11:03;15.50;99.90
18305;DHT22;9278;52.156;21.048;2022-10-10T14:13:36;15.50;99.90
18305;DHT22;9278;52.156;21.048;2022-10-10T14:16:10;15.40;99.90
18305;DHT22;9278;52.156;21.048;2022-10-10T14:18:41;15.50;99.90
18305;DHT22;9278;52.156;21.048;2022-10-10T14:21:12;15.40;99.90
18305;DHT22;9278;52.156;21.048;2022-10-10T14:23:40;15.30;99.90
18305;DHT22;9278;52.156;21.048;2022-10-10T14:26:11;15.30;99.90
18305;DHT22;9278;52.156;21.048;2022-10-10T14:28:41;15.30;99.90
18305;DHT22;9278;52.156;21.048;2022-10-10T14:31:10;15.30;99.90
18305;DHT22;9278;52.156;21.048;2022-10-10T14:33:38;15.30;99.90
18305;DHT22;9278;52.156;21.048;2022-10-10T14:36:08;15.20;99.90
18305;DHT22;9278;52.156;21.048;2022-10-10T14:38:38;15.10;99.90
18305;DHT22;9278;52.156;21.048;2022-10-10T14:41:09;15.00;99.90
18305;DHT22;9278;52.156;21.048;2022-10-10T14:43:39;15.00;99.90
18305;DHT22;9278;52.156;21.048;2022-10-10T14:46:17;14.90;99.90
18305;DHT22;9278;52.156;21.048;2022-10-10T14:48:46;14.70;99.90
18305;DHT22;9278;52.156;21.048;2022-10-10T14:51:14;14.80;99.90
18305;DHT22;9278;52.156;21.048;2022-10-10T14:54:01;14.80;99.90
18305;DHT22;9278;52.156;21.048;2022-10-10T14:56:40;14.60;99.90
18305;DHT22;9278;52.156;21.048;2022-10-10T14:59:29;14.50;99.90
18305;DHT22;9278;52.156;21.048;2022-10-10T15:02:14;14.30;99.90
18305;DHT22;9278;52.156;21.048;2022-10-10T15:04:43;14.10;99.90
18305;DHT22;9278;52.156;21.048;2022-10-10T15:07:11;14.00;99.90
18305;DHT22;9278;52.156;21.048;2022-10-10T15:09:43;13.90;99.90
18305;DHT22;9278;52.156;21.048;2022-10-10T15:12:32;13.70;99.90
18305;DHT22;9278;52.156;21.048;2022-10-10T15:15:01;13.60;99.90
18305;DHT22;9278;52.156;21.048;2022-10-10T15:17:30;13.50;99.90
18305;DHT22;9278;52.156;21.048;2022-10-10T15:20:00;13.40;99.90
18305;DHT22;9278;52.156;21.048;2022-10-10T15:22:30;13.40;99.90
18305;DHT22;9278;52.156;21.048;2022-10-10T15:24:59;12.90;99.90
18305;DHT22;9278;52.156;21.048;2022-10-10T15:27:28;12.80;99.90
18305;DHT22;9278;52.156;21.048;2022-10-10T15:29:58;12.70;99.90
18305;DHT22;9278;52.156;21.048;2022-10-10T15:32:27;12.60;99.90
18305;DHT22;9278;52.156;21.048;2022-10-10T15:34:55;12.40;99.90
18305;DHT22;9278;52.156;21.048;2022-10-10T15:37:25;12.50;99.90
18305;DHT22;9278;52.156;21.048;2022-10-10T15:39:54;12.50;99.90
18305;DHT22;9278;52.156;21.048;2022-10-10T15:42:24;12.40;99.90
18305;DHT22;9278;52.156;21.048;2022-10-10T15:44:52;12.40;99.90
18305;DHT22;9278;52.156;21.048;2022-10-10T15:47:20;12.40;99.90
18305;DHT22;9278;52.156;21.048;2022-10-10T15:49:48;12.30;99.90
18305;DHT22;9278;52.156;21.048;2022-10-10T15:52:18;12.00;99.90
18305;DHT22;9278;52.156;21.048;2022-10-10T15:54:49;11.90;99.90
18305;DHT22;9278;52.156;21.048;2022-10-10T15:57:18;11.80;99.90
18305;DHT22;9278;52.156;21.048;2022-10-10T15:59:49;11.70;99.90
18305;DHT22;9278;52.156;21.048;2022-10-10T16:02:18;11.60;99.90
18305;DHT22;9278;52.156;21.048;2022-10-10T16:04:46;11.40;99.90
18305;DHT22;9278;52.156;21.048;2022-10-10T16:07:14;11.50;99.90
18305;DHT22;9278;52.156;21.048;2022-10-10T16:09:55;11.30;99.90
18305;DHT22;9278;52.156;21.048;2022-10-10T16:12:25;11.20;99.90
18305;DHT22;9278;52.156;21.048;2022-10-10T16:14:54;11.10;99.90
18305;DHT22;9278;52.156;21.048;2022-10-10T16:17:22;11.10;99.90
18305;DHT22;9278;52.156;21.048;2022-10-10T16:19:51;11.00;99.90
18305;DHT22;9278;52.156;21.048;2022-10-10T16:22:19;11.00;99.90